createdAt,value
2022-08-25T00:01:46.587Z,67.66
2022-08-25T00:06:53.468Z,67.84
2022-08-25T00:11:59.183Z,68.01
2022-08-25T00:17:05.246Z,68.18
2022-08-25T00:22:11.258Z,68.34
2022-08-25T00:27:17.162Z,68.50
2022-08-25T00:32:22.850Z,68.67
2022-08-25T00:37:28.469Z,68.82
2022-08-25T00:42:33.968Z,68.93
2022-08-25T00:47:40.974Z,68.99
2022-08-25T00:52:48.667Z,69.03
2022-08-25T00:57:56.313Z,69.12
2022-08-25T01:03:02.916Z,69.24
2022-08-25T01:08:09.735Z,69.41
2022-08-25T01:13:18.431Z,69.60
2022-08-25T01:18:24.512Z,69.76
2022-08-25T01:23:30.618Z,69.93
2022-08-25T01:28:36.268Z,70.10
2022-08-25T01:33:43.029Z,70.57
2022-08-25T01:38:48.824Z,71.00
2022-08-25T01:43:54.606Z,71.33
2022-08-25T01:49:02.792Z,71.59
2022-08-25T01:54:11.768Z,71.79
2022-08-25T01:59:23.976Z,71.98
2022-08-25T02:04:32.678Z,72.18
2022-08-25T02:09:39.655Z,72.36
2022-08-25T02:14:45.120Z,72.48
2022-08-25T02:19:50.338Z,72.63
2022-08-25T02:24:55.741Z,72.71
2022-08-25T02:30:03.866Z,72.77
2022-08-25T02:35:10.292Z,72.83
2022-08-25T02:40:16.054Z,72.90
2022-08-25T02:45:21.593Z,72.98
2022-08-25T02:50:27.075Z,73.07
2022-08-25T02:55:34.652Z,73.16
2022-08-25T03:00:40.307Z,73.25
2022-08-25T03:05:49.245Z,73.33
2022-08-25T03:10:54.560Z,73.39
2022-08-25T03:16:00.148Z,73.48
2022-08-25T03:21:05.831Z,73.59
2022-08-25T03:26:28.802Z,73.68
2022-08-25T03:31:34.775Z,73.79
2022-08-25T03:36:40.984Z,73.87
2022-08-25T03:41:47.556Z,73.96
2022-08-25T03:46:53.967Z,74.03
2022-08-25T03:51:59.925Z,74.12
2022-08-25T03:57:06.801Z,74.18
2022-08-25T04:02:12.322Z,74.24
2022-08-25T04:07:18.235Z,74.31
2022-08-25T04:12:24.104Z,74.35
2022-08-25T04:17:29.642Z,74.43
2022-08-25T04:22:36.715Z,74.50
2022-08-25T04:27:42.428Z,74.56
2022-08-25T04:32:48.697Z,74.61
2022-08-25T04:37:54.108Z,74.68
2022-08-25T04:42:59.542Z,74.97
2022-08-25T04:48:05.394Z,74.62
2022-08-25T04:53:10.942Z,74.33
2022-08-25T04:58:17.158Z,74.22
2022-08-25T05:03:22.922Z,74.18
2022-08-25T05:08:28.642Z,74.15
2022-08-25T05:13:34.508Z,74.16
2022-08-25T05:18:40.278Z,74.21
2022-08-25T05:23:46.945Z,74.29
2022-08-25T05:28:53.028Z,74.31
2022-08-25T05:33:58.893Z,74.28
2022-08-25T05:39:04.719Z,74.27
2022-08-25T05:44:10.276Z,74.26
2022-08-25T05:49:15.723Z,74.21
2022-08-25T05:54:21.545Z,74.18
2022-08-25T05:59:27.212Z,74.09
2022-08-25T06:04:32.862Z,73.93
2022-08-25T06:09:39.203Z,73.82
2022-08-25T06:14:45.090Z,73.71
2022-08-25T06:19:50.323Z,73.65
2022-08-25T06:24:56.362Z,73.63
2022-08-25T06:30:08.043Z,73.53
2022-08-25T06:35:16.661Z,73.40
2022-08-25T06:40:22.380Z,73.39
2022-08-25T06:45:28.003Z,73.44
2022-08-25T06:50:33.555Z,73.49
2022-08-25T06:55:39.359Z,73.49
2022-08-25T07:00:44.751Z,73.46
2022-08-25T07:05:54.996Z,73.40
2022-08-25T07:11:01.194Z,73.30
2022-08-25T07:16:07.592Z,73.19
2022-08-25T07:21:14.142Z,73.08
2022-08-25T07:26:36.685Z,72.96
2022-08-25T07:31:43.473Z,72.84
2022-08-25T07:36:49.229Z,72.73
2022-08-25T07:41:55.122Z,72.63
2022-08-25T07:47:00.819Z,72.59
2022-08-25T07:52:07.169Z,72.53
2022-08-25T07:57:14.558Z,72.43
2022-08-25T08:02:20.115Z,72.28
2022-08-25T08:07:43.464Z,72.17
2022-08-25T08:12:49.919Z,72.08
2022-08-25T08:17:57.009Z,71.85
2022-08-25T08:23:04.061Z,71.64
2022-08-25T08:28:10.850Z,71.48
2022-08-25T08:33:16.585Z,71.31
2022-08-25T08:38:26.865Z,71.10
2022-08-25T08:43:33.723Z,70.97
2022-08-25T08:48:51.289Z,70.88
2022-08-25T08:53:58.634Z,70.75
2022-08-25T08:59:07.559Z,70.57
2022-08-25T09:04:15.464Z,70.39
2022-08-25T09:09:26.951Z,70.23
2022-08-25T09:14:40.822Z,70.08
2022-08-25T09:20:05.510Z,69.94
2022-08-25T09:25:48.750Z,69.77
2022-08-25T09:30:56.940Z,69.63
2022-08-25T09:36:04.571Z,69.50
2022-08-25T09:41:12.832Z,69.36
2022-08-25T09:46:20.512Z,69.19
2022-08-25T09:51:29.404Z,68.99
2022-08-25T09:56:51.304Z,68.69
2022-08-25T10:01:57.378Z,68.45
2022-08-25T10:07:04.339Z,68.27
2022-08-25T10:12:21.518Z,68.06
2022-08-25T10:17:34.596Z,67.86
2022-08-25T10:22:40.542Z,67.62
2022-08-25T10:27:55.577Z,67.35
2022-08-25T10:33:10.747Z,67.09
2022-08-25T10:38:27.179Z,66.87
2022-08-25T10:43:37.588Z,66.71
2022-08-25T10:48:51.025Z,66.57
2022-08-25T10:54:02.342Z,66.44
2022-08-25T10:59:22.747Z,66.27
2022-08-25T11:04:30.959Z,66.08
2022-08-25T11:09:40.857Z,65.85
2022-08-25T11:14:50.956Z,65.57
2022-08-25T11:19:59.507Z,65.30
2022-08-25T11:25:12.144Z,64.97
2022-08-25T11:30:19.130Z,64.78
2022-08-25T11:35:29.225Z,64.64
2022-08-25T11:40:54.902Z,64.44
2022-08-25T11:46:10.613Z,64.24
2022-08-25T11:51:33.719Z,63.88
2022-08-25T11:56:41.901Z,63.39
2022-08-25T12:02:03.505Z,62.99
2022-08-25T12:07:29.441Z,62.57
2022-08-25T12:12:38.422Z,62.15
2022-08-25T12:17:44.650Z,61.70
2022-08-25T12:23:00.648Z,61.36
2022-08-25T12:28:11.342Z,60.96
2022-08-25T12:33:22.220Z,60.59
2022-08-25T12:38:35.084Z,60.19
2022-08-25T12:43:45.419Z,59.75
2022-08-25T12:48:58.939Z,59.36
2022-08-25T12:54:19.190Z,58.93
2022-08-25T12:59:34.422Z,58.49
2022-08-25T13:05:03.538Z,58.07
2022-08-25T13:10:20.910Z,57.53
2022-08-25T13:15:34.804Z,56.92
2022-08-25T13:20:40.280Z,56.37
2022-08-25T13:25:52.521Z,55.97
2022-08-25T13:31:03.574Z,55.91
2022-08-25T13:36:26.764Z,56.30
2022-08-25T13:41:34.099Z,56.61
2022-08-25T13:46:39.627Z,56.65
2022-08-25T13:51:55.144Z,56.59
2022-08-25T13:57:08.430Z,56.54
2022-08-25T14:02:19.326Z,56.50
2022-08-25T14:07:33.755Z,56.57
2022-08-25T14:12:41.544Z,56.62
2022-08-25T14:17:49.146Z,56.64
2022-08-25T14:22:58.041Z,56.51
2022-08-25T14:28:07.224Z,56.40
2022-08-25T14:33:13.544Z,56.21
2022-08-25T14:38:19.267Z,55.97
2022-08-25T14:43:31.439Z,55.79
2022-08-25T14:48:44.800Z,55.68
2022-08-25T14:53:50.309Z,55.58
2022-08-25T14:58:56.666Z,55.50
2022-08-25T15:04:07.625Z,55.35
2022-08-25T15:09:14.024Z,55.23
2022-08-25T15:14:28.531Z,55.03
2022-08-25T15:19:38.361Z,54.79
2022-08-25T15:24:43.784Z,54.46
2022-08-25T15:29:49.986Z,54.03
2022-08-25T15:34:55.362Z,53.64
2022-08-25T15:40:01.265Z,53.28
2022-08-25T15:45:07.779Z,52.88
2022-08-25T15:50:15.420Z,52.58
2022-08-25T15:55:21.728Z,52.39
2022-08-25T16:00:27.780Z,52.08
2022-08-25T16:05:38.619Z,51.71
2022-08-25T16:10:46.702Z,51.41
2022-08-25T16:15:54.332Z,51.15
2022-08-25T16:21:01.069Z,50.92
2022-08-25T16:26:09.374Z,50.68
2022-08-25T16:31:17.338Z,50.31
2022-08-25T16:36:24.662Z,49.99
2022-08-25T16:41:35.695Z,49.75
2022-08-25T16:46:42.616Z,49.57
2022-08-25T16:51:50.047Z,49.53
2022-08-25T16:57:03.751Z,49.69
2022-08-25T17:02:09.169Z,50.07
2022-08-25T17:07:14.671Z,50.47
2022-08-25T17:12:29.628Z,50.81
2022-08-25T17:17:37.294Z,51.07
2022-08-25T17:22:44.139Z,51.34
2022-08-25T17:27:50.025Z,51.65
2022-08-25T17:32:55.986Z,51.96
2022-08-25T17:38:01.945Z,52.28
2022-08-25T17:43:12.245Z,52.60
2022-08-25T17:48:17.834Z,52.92
2022-08-25T17:53:23.911Z,53.20
2022-08-25T17:58:30.121Z,53.44
2022-08-25T18:03:35.959Z,53.70
2022-08-25T18:08:43.257Z,53.95
2022-08-25T18:13:50.542Z,54.18
2022-08-25T18:18:56.409Z,54.40
2022-08-25T18:24:03.667Z,54.62
2022-08-25T18:29:12.566Z,54.85
2022-08-25T18:34:18.914Z,55.08
2022-08-25T18:39:41.731Z,55.32
2022-08-25T18:44:49.394Z,55.57
2022-08-25T18:49:55.157Z,55.82
2022-08-25T18:55:00.660Z,56.08
2022-08-25T19:00:09.026Z,56.33
2022-08-25T19:05:15.733Z,56.60
2022-08-25T19:10:24.148Z,56.85
2022-08-25T19:15:32.086Z,57.13
2022-08-25T19:20:38.754Z,57.39
2022-08-25T19:25:45.031Z,57.66
2022-08-25T19:30:53.294Z,57.92
2022-08-25T19:35:59.463Z,58.16
2022-08-25T19:41:09.062Z,58.44
2022-08-25T19:46:21.168Z,58.69
2022-08-25T19:51:26.684Z,58.84
2022-08-25T19:56:33.056Z,58.92
2022-08-25T20:01:39.058Z,58.97
2022-08-25T20:06:48.405Z,59.04
2022-08-25T20:11:53.956Z,59.10
2022-08-25T20:17:00.269Z,59.20
2022-08-25T20:22:06.144Z,59.27
2022-08-25T20:27:17.242Z,59.56
2022-08-25T20:32:23.099Z,60.02
2022-08-25T20:37:28.761Z,60.45
2022-08-25T20:42:34.121Z,60.75
2022-08-25T20:47:39.762Z,60.94
2022-08-25T20:52:48.558Z,61.14
2022-08-25T20:57:54.317Z,61.32
2022-08-25T21:02:59.686Z,61.55
2022-08-25T21:08:06.516Z,61.73
2022-08-25T21:13:12.037Z,61.98
2022-08-25T21:18:18.020Z,62.26
2022-08-25T21:23:23.647Z,62.54
2022-08-25T21:28:29.301Z,62.82
2022-08-25T21:33:34.949Z,63.07
2022-08-25T21:38:41.326Z,63.32
2022-08-25T21:43:48.355Z,63.50
2022-08-25T21:48:54.615Z,63.77
2022-08-25T21:54:10.864Z,63.93
2022-08-25T21:59:17.431Z,64.21
2022-08-25T22:04:22.766Z,64.46
2022-08-25T22:09:29.574Z,64.68
2022-08-25T22:14:35.502Z,64.91
2022-08-25T22:19:41.320Z,65.14
2022-08-25T22:24:46.886Z,65.35
2022-08-25T22:29:52.751Z,65.55
2022-08-25T22:34:58.233Z,65.72
2022-08-25T22:40:04.661Z,65.89
2022-08-25T22:45:11.736Z,66.07
2022-08-25T22:50:18.116Z,66.25
2022-08-25T22:55:24.351Z,66.42
2022-08-25T23:00:33.476Z,66.58
2022-08-25T23:05:39.904Z,66.71
2022-08-25T23:10:51.606Z,66.87
2022-08-25T23:15:56.721Z,67.02
2022-08-25T23:21:24.165Z,67.16
2022-08-25T23:26:29.843Z,67.26
2022-08-25T23:31:35.485Z,67.35
2022-08-25T23:36:41.013Z,67.43
2022-08-25T23:41:48.250Z,67.48
2022-08-25T23:46:53.863Z,67.58
2022-08-25T23:51:59.372Z,67.77
2022-08-25T23:57:06.768Z,67.97
